sensor_id;sensor_type;location;lat;lon;timestamp;P1;durP1;ratioP1;P2;durP2;ratioP2
1885;SDS011;943;51.568;6.998;2022-12-07T00:02:30;36.50;;;24.00;;
1885;SDS011;943;51.568;6.998;2022-12-07T00:04:59;36.90;;;23.33;;
1885;SDS011;943;51.568;6.998;2022-12-07T00:07:28;40.70;;;26.30;;
1885;SDS011;943;51.568;6.998;2022-12-07T00:09:57;38.63;;;25.67;;
1885;SDS011;943;51.568;6.998;2022-12-07T00:12:26;42.03;;;25.73;;
1885;SDS011;943;51.568;6.998;2022-12-07T00:14:55;36.90;;;24.00;;
1885;SDS011;943;51.568;6.998;2022-12-07T00:17:24;32.53;;;24.23;;
1885;SDS011;943;51.568;6.998;2022-12-07T00:19:52;41.97;;;25.30;;
1885;SDS011;943;51.568;6.998;2022-12-07T00:22:21;37.63;;;24.93;;
1885;SDS011;943;51.568;6.998;2022-12-07T00:24:50;38.17;;;26.80;;
1885;SDS011;943;51.568;6.998;2022-12-07T00:27:19;37.53;;;26.70;;
1885;SDS011;943;51.568;6.998;2022-12-07T00:29:48;35.10;;;25.80;;
1885;SDS011;943;51.568;6.998;2022-12-07T00:32:17;37.60;;;28.00;;
1885;SDS011;943;51.568;6.998;2022-12-07T00:34:46;38.70;;;27.67;;
1885;SDS011;943;51.568;6.998;2022-12-07T00:37:16;39.90;;;27.10;;
1885;SDS011;943;51.568;6.998;2022-12-07T00:39:45;46.03;;;27.17;;
1885;SDS011;943;51.568;6.998;2022-12-07T00:42:14;39.90;;;28.07;;
1885;SDS011;943;51.568;6.998;2022-12-07T00:44:43;42.50;;;28.37;;
1885;SDS011;943;51.568;6.998;2022-12-07T00:47:12;40.70;;;28.27;;
1885;SDS011;943;51.568;6.998;2022-12-07T00:49:41;39.27;;;27.63;;
1885;SDS011;943;51.568;6.998;2022-12-07T00:52:11;41.70;;;29.43;;
1885;SDS011;943;51.568;6.998;2022-12-07T00:54:41;44.50;;;30.73;;
1885;SDS011;943;51.568;6.998;2022-12-07T00:57:10;34.03;;;25.60;;
1885;SDS011;943;51.568;6.998;2022-12-07T00:59:39;38.07;;;28.33;;
1885;SDS011;943;51.568;6.998;2022-12-07T01:02:09;44.83;;;30.00;;
1885;SDS011;943;51.568;6.998;2022-12-07T01:04:38;39.93;;;28.13;;
1885;SDS011;943;51.568;6.998;2022-12-07T01:07:07;45.60;;;30.00;;
1885;SDS011;943;51.568;6.998;2022-12-07T01:09:35;41.43;;;28.57;;
1885;SDS011;943;51.568;6.998;2022-12-07T01:12:04;40.60;;;29.30;;
1885;SDS011;943;51.568;6.998;2022-12-07T01:14:33;44.83;;;30.40;;
1885;SDS011;943;51.568;6.998;2022-12-07T01:17:03;39.00;;;29.40;;
1885;SDS011;943;51.568;6.998;2022-12-07T01:19:32;43.63;;;30.10;;
1885;SDS011;943;51.568;6.998;2022-12-07T01:22:01;42.17;;;29.40;;
1885;SDS011;943;51.568;6.998;2022-12-07T01:24:30;43.37;;;29.53;;
1885;SDS011;943;51.568;6.998;2022-12-07T01:26:59;45.30;;;30.23;;
1885;SDS011;943;51.568;6.998;2022-12-07T01:29:28;42.73;;;29.47;;
1885;SDS011;943;51.568;6.998;2022-12-07T01:31:57;43.17;;;29.47;;
1885;SDS011;943;51.568;6.998;2022-12-07T01:34:26;44.17;;;30.70;;
1885;SDS011;943;51.568;6.998;2022-12-07T01:36:56;39.80;;;27.97;;
1885;SDS011;943;51.568;6.998;2022-12-07T01:39:25;38.00;;;28.63;;
1885;SDS011;943;51.568;6.998;2022-12-07T01:41:57;45.87;;;28.67;;
1885;SDS011;943;51.568;6.998;2022-12-07T01:44:29;48.23;;;30.77;;
1885;SDS011;943;51.568;6.998;2022-12-07T01:47:22;45.47;;;30.10;;
1885;SDS011;943;51.568;6.998;2022-12-07T01:49:52;44.67;;;29.70;;
1885;SDS011;943;51.568;6.998;2022-12-07T01:52:30;57.63;;;30.47;;
1885;SDS011;943;51.568;6.998;2022-12-07T01:55:06;46.57;;;30.70;;
1885;SDS011;943;51.568;6.998;2022-12-07T01:57:52;45.67;;;32.00;;
1885;SDS011;943;51.568;6.998;2022-12-07T02:00:23;44.00;;;29.07;;
1885;SDS011;943;51.568;6.998;2022-12-07T02:02:57;41.87;;;28.20;;
1885;SDS011;943;51.568;6.998;2022-12-07T02:05:43;54.83;;;32.27;;
1885;SDS011;943;51.568;6.998;2022-12-07T02:08:16;45.43;;;31.30;;
1885;SDS011;943;51.568;6.998;2022-12-07T02:10:47;51.30;;;32.77;;
1885;SDS011;943;51.568;6.998;2022-12-07T02:13:20;54.97;;;32.33;;
1885;SDS011;943;51.568;6.998;2022-12-07T02:29:26;46.33;;;27.67;;
1885;SDS011;943;51.568;6.998;2022-12-07T02:35:33;42.93;;;27.77;;
1885;SDS011;943;51.568;6.998;2022-12-07T02:38:26;45.00;;;26.33;;
1885;SDS011;943;51.568;6.998;2022-12-07T02:41:48;38.37;;;26.90;;
1885;SDS011;943;51.568;6.998;2022-12-07T02:44:30;44.43;;;29.17;;
1885;SDS011;943;51.568;6.998;2022-12-07T02:47:04;46.97;;;29.57;;
1885;SDS011;943;51.568;6.998;2022-12-07T02:49:43;50.13;;;31.20;;
1885;SDS011;943;51.568;6.998;2022-12-07T02:52:13;52.77;;;33.13;;
1885;SDS011;943;51.568;6.998;2022-12-07T02:54:42;49.33;;;31.97;;
1885;SDS011;943;51.568;6.998;2022-12-07T02:57:15;48.70;;;31.97;;
1885;SDS011;943;51.568;6.998;2022-12-07T03:11:28;56.97;;;34.80;;
1885;SDS011;943;51.568;6.998;2022-12-07T03:14:47;51.60;;;33.17;;
1885;SDS011;943;51.568;6.998;2022-12-07T03:17:42;61.13;;;33.23;;
1885;SDS011;943;51.568;6.998;2022-12-07T03:20:17;58.77;;;34.70;;
1885;SDS011;943;51.568;6.998;2022-12-07T03:22:52;60.63;;;36.60;;
1885;SDS011;943;51.568;6.998;2022-12-07T03:25:25;57.47;;;34.00;;
1885;SDS011;943;51.568;6.998;2022-12-07T03:27:57;62.83;;;34.47;;
1885;SDS011;943;51.568;6.998;2022-12-07T03:30:37;64.43;;;35.37;;
1885;SDS011;943;51.568;6.998;2022-12-07T03:33:29;72.80;;;37.77;;
1885;SDS011;943;51.568;6.998;2022-12-07T03:36:26;69.93;;;35.30;;
1885;SDS011;943;51.568;6.998;2022-12-07T03:39:32;64.70;;;36.27;;
1885;SDS011;943;51.568;6.998;2022-12-07T03:42:34;68.83;;;37.50;;
1885;SDS011;943;51.568;6.998;2022-12-07T03:45:03;64.23;;;35.83;;
1885;SDS011;943;51.568;6.998;2022-12-07T03:54:34;71.93;;;39.23;;
1885;SDS011;943;51.568;6.998;2022-12-07T03:57:33;63.73;;;35.87;;
1885;SDS011;943;51.568;6.998;2022-12-07T04:00:07;65.70;;;35.57;;
1885;SDS011;943;51.568;6.998;2022-12-07T04:02:39;57.23;;;35.90;;
1885;SDS011;943;51.568;6.998;2022-12-07T04:05:10;63.17;;;35.67;;
1885;SDS011;943;51.568;6.998;2022-12-07T04:07:39;59.10;;;36.50;;
1885;SDS011;943;51.568;6.998;2022-12-07T04:10:09;68.67;;;37.33;;
1885;SDS011;943;51.568;6.998;2022-12-07T04:12:38;59.27;;;35.00;;
1885;SDS011;943;51.568;6.998;2022-12-07T04:15:08;59.43;;;35.97;;
1885;SDS011;943;51.568;6.998;2022-12-07T04:17:38;49.57;;;32.57;;
1885;SDS011;943;51.568;6.998;2022-12-07T04:20:07;54.20;;;32.77;;
1885;SDS011;943;51.568;6.998;2022-12-07T04:22:40;54.83;;;31.30;;
1885;SDS011;943;51.568;6.998;2022-12-07T04:25:10;41.13;;;27.07;;
1885;SDS011;943;51.568;6.998;2022-12-07T04:27:38;48.27;;;29.90;;
1885;SDS011;943;51.568;6.998;2022-12-07T04:30:07;58.73;;;30.87;;
1885;SDS011;943;51.568;6.998;2022-12-07T04:32:36;51.63;;;30.10;;
1885;SDS011;943;51.568;6.998;2022-12-07T04:35:06;51.13;;;29.30;;
1885;SDS011;943;51.568;6.998;2022-12-07T04:37:37;46.73;;;29.57;;
1885;SDS011;943;51.568;6.998;2022-12-07T04:40:07;51.03;;;28.80;;
1885;SDS011;943;51.568;6.998;2022-12-07T04:42:38;43.87;;;27.13;;
1885;SDS011;943;51.568;6.998;2022-12-07T04:45:08;62.17;;;31.50;;
1885;SDS011;943;51.568;6.998;2022-12-07T04:47:37;52.80;;;28.80;;
1885;SDS011;943;51.568;6.998;2022-12-07T04:50:06;46.47;;;27.87;;
1885;SDS011;943;51.568;6.998;2022-12-07T04:52:38;47.13;;;28.70;;
1885;SDS011;943;51.568;6.998;2022-12-07T04:55:07;48.17;;;28.23;;
1885;SDS011;943;51.568;6.998;2022-12-07T04:57:36;53.17;;;30.13;;
1885;SDS011;943;51.568;6.998;2022-12-07T05:00:05;55.43;;;28.40;;
1885;SDS011;943;51.568;6.998;2022-12-07T05:02:37;55.37;;;30.10;;
1885;SDS011;943;51.568;6.998;2022-12-07T05:05:07;51.97;;;31.20;;
1885;SDS011;943;51.568;6.998;2022-12-07T05:07:35;55.27;;;32.70;;
1885;SDS011;943;51.568;6.998;2022-12-07T05:10:04;50.63;;;29.83;;
1885;SDS011;943;51.568;6.998;2022-12-07T05:12:35;47.73;;;29.27;;
1885;SDS011;943;51.568;6.998;2022-12-07T05:15:04;46.80;;;28.27;;
1885;SDS011;943;51.568;6.998;2022-12-07T05:17:34;46.20;;;28.57;;
1885;SDS011;943;51.568;6.998;2022-12-07T05:20:03;48.30;;;29.30;;
1885;SDS011;943;51.568;6.998;2022-12-07T05:22:35;50.50;;;29.87;;
1885;SDS011;943;51.568;6.998;2022-12-07T05:25:04;57.90;;;32.47;;
1885;SDS011;943;51.568;6.998;2022-12-07T05:27:33;47.67;;;30.00;;
1885;SDS011;943;51.568;6.998;2022-12-07T05:30:02;54.10;;;33.20;;
1885;SDS011;943;51.568;6.998;2022-12-07T05:32:33;57.97;;;33.50;;
1885;SDS011;943;51.568;6.998;2022-12-07T05:35:02;53.17;;;31.43;;
1885;SDS011;943;51.568;6.998;2022-12-07T05:37:33;55.20;;;32.70;;
1885;SDS011;943;51.568;6.998;2022-12-07T05:40:02;48.20;;;30.10;;
1885;SDS011;943;51.568;6.998;2022-12-07T05:42:34;49.80;;;32.77;;
1885;SDS011;943;51.568;6.998;2022-12-07T05:45:03;49.37;;;29.80;;
1885;SDS011;943;51.568;6.998;2022-12-07T05:47:34;47.37;;;29.20;;
1885;SDS011;943;51.568;6.998;2022-12-07T05:50:05;53.70;;;30.97;;
1885;SDS011;943;51.568;6.998;2022-12-07T05:52:35;44.90;;;29.50;;
1885;SDS011;943;51.568;6.998;2022-12-07T05:55:04;47.13;;;29.83;;
1885;SDS011;943;51.568;6.998;2022-12-07T05:57:34;44.13;;;29.43;;
1885;SDS011;943;51.568;6.998;2022-12-07T06:00:04;43.93;;;29.60;;
1885;SDS011;943;51.568;6.998;2022-12-07T06:02:37;48.10;;;28.63;;
1885;SDS011;943;51.568;6.998;2022-12-07T06:05:06;42.37;;;26.73;;
1885;SDS011;943;51.568;6.998;2022-12-07T06:07:36;45.10;;;29.70;;
1885;SDS011;943;51.568;6.998;2022-12-07T06:10:06;47.57;;;26.97;;
1885;SDS011;943;51.568;6.998;2022-12-07T06:12:35;45.03;;;28.33;;
1885;SDS011;943;51.568;6.998;2022-12-07T06:15:06;42.83;;;27.00;;
1885;SDS011;943;51.568;6.998;2022-12-07T06:17:39;44.60;;;28.10;;
1885;SDS011;943;51.568;6.998;2022-12-07T06:20:08;45.43;;;28.57;;
1885;SDS011;943;51.568;6.998;2022-12-07T06:22:37;41.50;;;26.37;;
1885;SDS011;943;51.568;6.998;2022-12-07T06:25:06;49.00;;;28.57;;
1885;SDS011;943;51.568;6.998;2022-12-07T06:27:37;39.97;;;27.17;;
1885;SDS011;943;51.568;6.998;2022-12-07T06:30:06;43.13;;;25.70;;
1885;SDS011;943;51.568;6.998;2022-12-07T06:32:36;40.50;;;26.20;;
1885;SDS011;943;51.568;6.998;2022-12-07T06:35:05;41.80;;;24.77;;
1885;SDS011;943;51.568;6.998;2022-12-07T06:37:36;42.50;;;25.87;;
1885;SDS011;943;51.568;6.998;2022-12-07T06:40:06;32.80;;;21.90;;
1885;SDS011;943;51.568;6.998;2022-12-07T06:42:37;37.27;;;24.03;;
1885;SDS011;943;51.568;6.998;2022-12-07T06:45:09;32.43;;;23.03;;
1885;SDS011;943;51.568;6.998;2022-12-07T06:47:38;34.97;;;22.30;;
1885;SDS011;943;51.568;6.998;2022-12-07T06:50:12;39.27;;;24.23;;
1885;SDS011;943;51.568;6.998;2022-12-07T06:52:41;36.83;;;23.60;;
1885;SDS011;943;51.568;6.998;2022-12-07T06:55:11;35.03;;;22.77;;
1885;SDS011;943;51.568;6.998;2022-12-07T06:57:40;37.73;;;22.07;;
1885;SDS011;943;51.568;6.998;2022-12-07T07:00:09;41.20;;;22.07;;
1885;SDS011;943;51.568;6.998;2022-12-07T07:02:45;38.47;;;25.13;;
1885;SDS011;943;51.568;6.998;2022-12-07T07:05:13;37.73;;;23.07;;
1885;SDS011;943;51.568;6.998;2022-12-07T07:07:44;37.80;;;22.60;;
1885;SDS011;943;51.568;6.998;2022-12-07T07:10:36;45.43;;;24.50;;
1885;SDS011;943;51.568;6.998;2022-12-07T07:13:08;40.77;;;24.40;;
1885;SDS011;943;51.568;6.998;2022-12-07T07:15:41;43.57;;;26.50;;
1885;SDS011;943;51.568;6.998;2022-12-07T07:18:12;40.30;;;24.30;;
1885;SDS011;943;51.568;6.998;2022-12-07T07:20:43;40.33;;;25.70;;
1885;SDS011;943;51.568;6.998;2022-12-07T07:23:13;42.23;;;23.17;;
1885;SDS011;943;51.568;6.998;2022-12-07T07:25:43;43.90;;;24.77;;
1885;SDS011;943;51.568;6.998;2022-12-07T07:28:16;43.90;;;23.37;;
1885;SDS011;943;51.568;6.998;2022-12-07T07:30:52;39.47;;;24.73;;
1885;SDS011;943;51.568;6.998;2022-12-07T07:33:25;33.73;;;21.03;;
1885;SDS011;943;51.568;6.998;2022-12-07T07:35:57;42.33;;;23.27;;
1885;SDS011;943;51.568;6.998;2022-12-07T07:38:27;34.57;;;21.03;;
1885;SDS011;943;51.568;6.998;2022-12-07T07:41:03;32.83;;;22.50;;
1885;SDS011;943;51.568;6.998;2022-12-07T07:43:33;34.20;;;20.90;;
1885;SDS011;943;51.568;6.998;2022-12-07T07:46:03;44.07;;;23.23;;
1885;SDS011;943;51.568;6.998;2022-12-07T07:48:32;34.50;;;20.33;;
1885;SDS011;943;51.568;6.998;2022-12-07T07:50:59;34.80;;;20.10;;
1885;SDS011;943;51.568;6.998;2022-12-07T07:53:27;34.63;;;21.30;;
1885;SDS011;943;51.568;6.998;2022-12-07T07:55:56;35.60;;;19.93;;
1885;SDS011;943;51.568;6.998;2022-12-07T07:58:43;25.97;;;18.30;;
1885;SDS011;943;51.568;6.998;2022-12-07T08:01:31;38.23;;;18.83;;
1885;SDS011;943;51.568;6.998;2022-12-07T08:03:58;36.10;;;18.03;;
1885;SDS011;943;51.568;6.998;2022-12-07T08:06:26;32.30;;;18.87;;
1885;SDS011;943;51.568;6.998;2022-12-07T08:08:58;25.70;;;18.73;;
1885;SDS011;943;51.568;6.998;2022-12-07T08:11:25;25.90;;;18.60;;
1885;SDS011;943;51.568;6.998;2022-12-07T08:13:53;41.53;;;20.17;;
1885;SDS011;943;51.568;6.998;2022-12-07T08:16:21;31.60;;;18.87;;
1885;SDS011;943;51.568;6.998;2022-12-07T08:18:49;31.57;;;18.50;;
1885;SDS011;943;51.568;6.998;2022-12-07T08:21:16;26.63;;;18.93;;
1885;SDS011;943;51.568;6.998;2022-12-07T08:23:44;29.17;;;17.53;;
1885;SDS011;943;51.568;6.998;2022-12-07T08:26:13;29.17;;;17.40;;
1885;SDS011;943;51.568;6.998;2022-12-07T08:28:43;26.87;;;17.17;;
1885;SDS011;943;51.568;6.998;2022-12-07T08:31:13;28.73;;;16.40;;
1885;SDS011;943;51.568;6.998;2022-12-07T08:33:46;23.83;;;16.43;;
1885;SDS011;943;51.568;6.998;2022-12-07T08:36:16;29.73;;;15.73;;
1885;SDS011;943;51.568;6.998;2022-12-07T08:38:44;25.60;;;16.20;;
1885;SDS011;943;51.568;6.998;2022-12-07T08:41:32;26.60;;;16.50;;
1885;SDS011;943;51.568;6.998;2022-12-07T08:44:00;28.63;;;16.80;;
1885;SDS011;943;51.568;6.998;2022-12-07T08:46:36;26.70;;;16.00;;
1885;SDS011;943;51.568;6.998;2022-12-07T08:49:17;21.53;;;15.90;;
1885;SDS011;943;51.568;6.998;2022-12-07T08:52:08;26.20;;;14.80;;
1885;SDS011;943;51.568;6.998;2022-12-07T08:54:36;21.33;;;15.20;;
1885;SDS011;943;51.568;6.998;2022-12-07T08:57:07;21.33;;;15.37;;
1885;SDS011;943;51.568;6.998;2022-12-07T08:59:37;27.30;;;14.57;;
1885;SDS011;943;51.568;6.998;2022-12-07T09:02:05;25.13;;;15.07;;
1885;SDS011;943;51.568;6.998;2022-12-07T09:04:33;20.80;;;12.20;;
1885;SDS011;943;51.568;6.998;2022-12-07T09:07:02;20.60;;;13.87;;
1885;SDS011;943;51.568;6.998;2022-12-07T09:09:31;23.97;;;11.93;;
1885;SDS011;943;51.568;6.998;2022-12-07T09:11:59;18.03;;;11.40;;
1885;SDS011;943;51.568;6.998;2022-12-07T09:14:27;15.97;;;11.67;;
1885;SDS011;943;51.568;6.998;2022-12-07T09:16:54;26.47;;;12.00;;
1885;SDS011;943;51.568;6.998;2022-12-07T09:19:37;20.40;;;11.40;;
1885;SDS011;943;51.568;6.998;2022-12-07T09:22:07;25.03;;;11.50;;
1885;SDS011;943;51.568;6.998;2022-12-07T09:24:36;17.33;;;10.53;;
1885;SDS011;943;51.568;6.998;2022-12-07T09:27:03;17.27;;;10.57;;
1885;SDS011;943;51.568;6.998;2022-12-07T09:29:32;16.07;;;10.37;;
1885;SDS011;943;51.568;6.998;2022-12-07T09:31:59;16.37;;;10.50;;
1885;SDS011;943;51.568;6.998;2022-12-07T09:34:35;15.83;;;9.87;;
1885;SDS011;943;51.568;6.998;2022-12-07T09:37:03;22.10;;;10.50;;
1885;SDS011;943;51.568;6.998;2022-12-07T09:39:30;21.50;;;10.20;;
1885;SDS011;943;51.568;6.998;2022-12-07T09:41:58;16.03;;;9.43;;
1885;SDS011;943;51.568;6.998;2022-12-07T09:44:33;18.70;;;10.50;;
1885;SDS011;943;51.568;6.998;2022-12-07T09:47:02;16.17;;;9.17;;
1885;SDS011;943;51.568;6.998;2022-12-07T09:49:31;16.93;;;9.60;;
1885;SDS011;943;51.568;6.998;2022-12-07T09:52:00;15.70;;;9.97;;
1885;SDS011;943;51.568;6.998;2022-12-07T09:54:36;15.03;;;8.50;;
1885;SDS011;943;51.568;6.998;2022-12-07T09:57:16;25.37;;;10.40;;
1885;SDS011;943;51.568;6.998;2022-12-07T10:00:03;16.90;;;7.37;;
1885;SDS011;943;51.568;6.998;2022-12-07T10:02:46;14.60;;;8.30;;
1885;SDS011;943;51.568;6.998;2022-12-07T10:08:04;15.63;;;8.90;;
1885;SDS011;943;51.568;6.998;2022-12-07T10:10:39;13.60;;;9.30;;
1885;SDS011;943;51.568;6.998;2022-12-07T10:13:08;15.80;;;10.80;;
1885;SDS011;943;51.568;6.998;2022-12-07T10:15:48;15.97;;;9.63;;
1885;SDS011;943;51.568;6.998;2022-12-07T10:18:27;13.23;;;9.67;;
1885;SDS011;943;51.568;6.998;2022-12-07T10:26:50;15.93;;;8.53;;
1885;SDS011;943;51.568;6.998;2022-12-07T10:35:19;16.97;;;7.80;;
1885;SDS011;943;51.568;6.998;2022-12-07T10:37:57;12.00;;;8.43;;
1885;SDS011;943;51.568;6.998;2022-12-07T10:40:33;11.83;;;7.20;;
1885;SDS011;943;51.568;6.998;2022-12-07T10:43:10;15.60;;;8.30;;
1885;SDS011;943;51.568;6.998;2022-12-07T10:46:01;16.90;;;6.87;;
1885;SDS011;943;51.568;6.998;2022-12-07T11:00:18;9.90;;;6.20;;
1885;SDS011;943;51.568;6.998;2022-12-07T11:24:19;15.87;;;6.00;;
1885;SDS011;943;51.568;6.998;2022-12-07T11:27:39;10.47;;;5.57;;
1885;SDS011;943;51.568;6.998;2022-12-07T11:31:06;8.70;;;4.97;;
1885;SDS011;943;51.568;6.998;2022-12-07T11:34:00;10.87;;;5.57;;
1885;SDS011;943;51.568;6.998;2022-12-07T11:37:08;10.90;;;4.87;;
1885;SDS011;943;51.568;6.998;2022-12-07T11:39:52;9.00;;;4.70;;
1885;SDS011;943;51.568;6.998;2022-12-07T11:42:34;11.40;;;4.60;;
1885;SDS011;943;51.568;6.998;2022-12-07T11:45:17;10.97;;;4.73;;
1885;SDS011;943;51.568;6.998;2022-12-07T11:50:59;13.23;;;5.33;;
1885;SDS011;943;51.568;6.998;2022-12-07T11:56:32;8.33;;;4.17;;
1885;SDS011;943;51.568;6.998;2022-12-07T12:01:54;7.17;;;3.50;;
1885;SDS011;943;51.568;6.998;2022-12-07T12:04:51;9.37;;;4.10;;
1885;SDS011;943;51.568;6.998;2022-12-07T12:07:55;10.47;;;4.10;;
1885;SDS011;943;51.568;6.998;2022-12-07T12:14:33;11.33;;;4.63;;
1885;SDS011;943;51.568;6.998;2022-12-07T12:21:17;10.10;;;4.37;;
1885;SDS011;943;51.568;6.998;2022-12-07T12:24:00;13.00;;;4.43;;
1885;SDS011;943;51.568;6.998;2022-12-07T12:26:53;5.47;;;3.60;;
1885;SDS011;943;51.568;6.998;2022-12-07T12:29:52;6.53;;;3.60;;
1885;SDS011;943;51.568;6.998;2022-12-07T12:32:38;5.37;;;3.97;;
1885;SDS011;943;51.568;6.998;2022-12-07T12:35:22;10.73;;;3.80;;
1885;SDS011;943;51.568;6.998;2022-12-07T12:50:15;8.20;;;3.40;;
1885;SDS011;943;51.568;6.998;2022-12-07T12:52:47;12.13;;;6.10;;
1885;SDS011;943;51.568;6.998;2022-12-07T13:00:47;9.87;;;3.93;;
1885;SDS011;943;51.568;6.998;2022-12-07T13:04:17;6.80;;;3.93;;
1885;SDS011;943;51.568;6.998;2022-12-07T13:07:08;7.23;;;3.40;;
1885;SDS011;943;51.568;6.998;2022-12-07T13:09:59;13.10;;;4.70;;
1885;SDS011;943;51.568;6.998;2022-12-07T13:12:29;9.10;;;4.37;;
1885;SDS011;943;51.568;6.998;2022-12-07T13:14:58;10.73;;;3.33;;
1885;SDS011;943;51.568;6.998;2022-12-07T13:20:05;13.60;;;5.53;;
1885;SDS011;943;51.568;6.998;2022-12-07T13:22:42;9.87;;;4.50;;
1885;SDS011;943;51.568;6.998;2022-12-07T13:25:33;13.60;;;4.10;;
1885;SDS011;943;51.568;6.998;2022-12-07T13:28:33;11.30;;;5.33;;
1885;SDS011;943;51.568;6.998;2022-12-07T13:31:13;7.07;;;4.57;;
1885;SDS011;943;51.568;6.998;2022-12-07T13:40:17;7.30;;;3.27;;
1885;SDS011;943;51.568;6.998;2022-12-07T13:42:56;8.50;;;3.07;;
1885;SDS011;943;51.568;6.998;2022-12-07T13:45:39;6.27;;;3.10;;
1885;SDS011;943;51.568;6.998;2022-12-07T13:49:00;9.07;;;4.40;;
1885;SDS011;943;51.568;6.998;2022-12-07T13:51:23;8.70;;;4.60;;
1885;SDS011;943;51.568;6.998;2022-12-07T13:53:56;15.03;;;5.50;;
1885;SDS011;943;51.568;6.998;2022-12-07T13:56:37;9.67;;;5.13;;
1885;SDS011;943;51.568;6.998;2022-12-07T13:59:24;12.60;;;4.47;;
1885;SDS011;943;51.568;6.998;2022-12-07T14:01:53;15.20;;;5.43;;
1885;SDS011;943;51.568;6.998;2022-12-07T14:04:34;8.07;;;5.77;;
1885;SDS011;943;51.568;6.998;2022-12-07T14:09:56;14.63;;;6.30;;
1885;SDS011;943;51.568;6.998;2022-12-07T14:12:32;12.03;;;7.80;;
1885;SDS011;943;51.568;6.998;2022-12-07T14:15:15;11.60;;;6.07;;
1885;SDS011;943;51.568;6.998;2022-12-07T14:17:58;16.40;;;5.90;;
1885;SDS011;943;51.568;6.998;2022-12-07T14:23:23;9.73;;;5.93;;
1885;SDS011;943;51.568;6.998;2022-12-07T14:26:04;12.07;;;6.90;;
1885;SDS011;943;51.568;6.998;2022-12-07T14:28:47;11.67;;;5.80;;
1885;SDS011;943;51.568;6.998;2022-12-07T14:31:18;9.17;;;5.57;;
1885;SDS011;943;51.568;6.998;2022-12-07T14:33:58;12.23;;;6.40;;
1885;SDS011;943;51.568;6.998;2022-12-07T14:36:26;8.63;;;5.80;;
1885;SDS011;943;51.568;6.998;2022-12-07T14:38:54;13.30;;;5.90;;
1885;SDS011;943;51.568;6.998;2022-12-07T14:41:24;15.47;;;7.20;;
1885;SDS011;943;51.568;6.998;2022-12-07T14:44:11;18.20;;;14.67;;
1885;SDS011;943;51.568;6.998;2022-12-07T14:46:51;12.63;;;6.90;;
1885;SDS011;943;51.568;6.998;2022-12-07T14:49:39;15.40;;;6.07;;
1885;SDS011;943;51.568;6.998;2022-12-07T14:52:15;10.40;;;5.97;;
1885;SDS011;943;51.568;6.998;2022-12-07T14:55:26;14.83;;;7.00;;
1885;SDS011;943;51.568;6.998;2022-12-07T14:57:57;12.10;;;7.67;;
1885;SDS011;943;51.568;6.998;2022-12-07T15:00:27;13.60;;;6.90;;
1885;SDS011;943;51.568;6.998;2022-12-07T15:02:55;14.50;;;6.53;;
1885;SDS011;943;51.568;6.998;2022-12-07T15:05:24;15.07;;;6.57;;
1885;SDS011;943;51.568;6.998;2022-12-07T15:07:52;13.60;;;7.20;;
1885;SDS011;943;51.568;6.998;2022-12-07T15:10:23;9.70;;;6.03;;
1885;SDS011;943;51.568;6.998;2022-12-07T15:12:59;11.80;;;7.80;;
1885;SDS011;943;51.568;6.998;2022-12-07T15:15:48;14.87;;;7.30;;
1885;SDS011;943;51.568;6.998;2022-12-07T15:18:19;13.90;;;6.87;;
1885;SDS011;943;51.568;6.998;2022-12-07T15:20:50;12.27;;;7.60;;
1885;SDS011;943;51.568;6.998;2022-12-07T15:23:18;18.10;;;8.33;;
1885;SDS011;943;51.568;6.998;2022-12-07T15:25:46;17.87;;;8.10;;
1885;SDS011;943;51.568;6.998;2022-12-07T15:28:16;12.03;;;7.27;;
1885;SDS011;943;51.568;6.998;2022-12-07T15:30:44;14.13;;;7.47;;
1885;SDS011;943;51.568;6.998;2022-12-07T15:33:12;12.87;;;7.87;;
1885;SDS011;943;51.568;6.998;2022-12-07T15:35:44;13.30;;;7.30;;
1885;SDS011;943;51.568;6.998;2022-12-07T15:38:12;14.00;;;7.80;;
1885;SDS011;943;51.568;6.998;2022-12-07T15:40:40;11.90;;;6.30;;
1885;SDS011;943;51.568;6.998;2022-12-07T15:43:08;11.50;;;6.00;;
1885;SDS011;943;51.568;6.998;2022-12-07T15:45:56;16.63;;;7.03;;
1885;SDS011;943;51.568;6.998;2022-12-07T15:48:25;17.53;;;7.27;;
1885;SDS011;943;51.568;6.998;2022-12-07T15:51:01;11.13;;;7.50;;
1885;SDS011;943;51.568;6.998;2022-12-07T15:53:36;12.17;;;6.63;;
1885;SDS011;943;51.568;6.998;2022-12-07T15:56:06;9.90;;;6.07;;
1885;SDS011;943;51.568;6.998;2022-12-07T15:58:35;9.57;;;6.10;;
1885;SDS011;943;51.568;6.998;2022-12-07T16:01:11;12.53;;;7.00;;
1885;SDS011;943;51.568;6.998;2022-12-07T16:03:43;13.50;;;6.60;;
1885;SDS011;943;51.568;6.998;2022-12-07T16:06:15;12.43;;;7.90;;
1885;SDS011;943;51.568;6.998;2022-12-07T16:08:45;13.50;;;7.23;;
1885;SDS011;943;51.568;6.998;2022-12-07T16:11:13;11.53;;;6.40;;
1885;SDS011;943;51.568;6.998;2022-12-07T16:13:41;10.27;;;6.30;;
1885;SDS011;943;51.568;6.998;2022-12-07T16:16:14;9.87;;;6.67;;
1885;SDS011;943;51.568;6.998;2022-12-07T16:18:46;10.27;;;6.93;;
1885;SDS011;943;51.568;6.998;2022-12-07T16:21:16;14.20;;;6.77;;
1885;SDS011;943;51.568;6.998;2022-12-07T16:23:50;18.37;;;8.97;;
1885;SDS011;943;51.568;6.998;2022-12-07T16:26:20;16.50;;;6.00;;
1885;SDS011;943;51.568;6.998;2022-12-07T16:28:49;13.83;;;6.40;;
1885;SDS011;943;51.568;6.998;2022-12-07T16:31:20;11.60;;;6.07;;
1885;SDS011;943;51.568;6.998;2022-12-07T16:33:54;11.80;;;6.23;;
1885;SDS011;943;51.568;6.998;2022-12-07T16:36:25;16.40;;;6.87;;
1885;SDS011;943;51.568;6.998;2022-12-07T16:39:14;9.23;;;6.30;;
1885;SDS011;943;51.568;6.998;2022-12-07T16:41:41;14.03;;;7.47;;
1885;SDS011;943;51.568;6.998;2022-12-07T16:44:12;11.00;;;6.73;;
1885;SDS011;943;51.568;6.998;2022-12-07T16:46:40;14.00;;;7.80;;
1885;SDS011;943;51.568;6.998;2022-12-07T16:49:13;11.20;;;6.90;;
1885;SDS011;943;51.568;6.998;2022-12-07T16:51:43;14.23;;;6.70;;
1885;SDS011;943;51.568;6.998;2022-12-07T16:54:11;13.17;;;6.80;;
1885;SDS011;943;51.568;6.998;2022-12-07T16:56:39;16.67;;;6.57;;
1885;SDS011;943;51.568;6.998;2022-12-07T16:59:07;13.83;;;7.53;;
1885;SDS011;943;51.568;6.998;2022-12-07T17:01:35;12.50;;;7.03;;
1885;SDS011;943;51.568;6.998;2022-12-07T17:04:04;11.77;;;6.90;;
1885;SDS011;943;51.568;6.998;2022-12-07T17:06:31;8.60;;;6.00;;
1885;SDS011;943;51.568;6.998;2022-12-07T17:08:59;9.80;;;5.93;;
1885;SDS011;943;51.568;6.998;2022-12-07T17:11:28;11.10;;;4.80;;
1885;SDS011;943;51.568;6.998;2022-12-07T17:13:57;8.77;;;5.57;;
1885;SDS011;943;51.568;6.998;2022-12-07T17:17:04;9.93;;;4.07;;
1885;SDS011;943;51.568;6.998;2022-12-07T17:19:31;7.63;;;3.93;;
1885;SDS011;943;51.568;6.998;2022-12-07T17:21:59;7.10;;;3.67;;
1885;SDS011;943;51.568;6.998;2022-12-07T17:24:27;9.07;;;3.07;;
1885;SDS011;943;51.568;6.998;2022-12-07T17:26:54;16.93;;;4.57;;
1885;SDS011;943;51.568;6.998;2022-12-07T17:29:22;4.47;;;3.47;;
1885;SDS011;943;51.568;6.998;2022-12-07T17:31:50;6.67;;;3.77;;
1885;SDS011;943;51.568;6.998;2022-12-07T17:34:18;9.93;;;4.97;;
1885;SDS011;943;51.568;6.998;2022-12-07T17:36:45;11.70;;;7.33;;
1885;SDS011;943;51.568;6.998;2022-12-07T17:39:16;15.10;;;7.37;;
1885;SDS011;943;51.568;6.998;2022-12-07T17:41:45;18.70;;;8.90;;
1885;SDS011;943;51.568;6.998;2022-12-07T17:44:31;16.93;;;9.17;;
1885;SDS011;943;51.568;6.998;2022-12-07T17:46:59;15.10;;;9.20;;
1885;SDS011;943;51.568;6.998;2022-12-07T17:49:29;14.47;;;8.87;;
1885;SDS011;943;51.568;6.998;2022-12-07T17:51:57;16.40;;;9.73;;
1885;SDS011;943;51.568;6.998;2022-12-07T17:54:43;18.47;;;10.83;;
1885;SDS011;943;51.568;6.998;2022-12-07T17:57:11;12.47;;;9.50;;
1885;SDS011;943;51.568;6.998;2022-12-07T17:59:39;15.50;;;8.93;;
1885;SDS011;943;51.568;6.998;2022-12-07T18:02:08;12.43;;;9.43;;
1885;SDS011;943;51.568;6.998;2022-12-07T18:04:36;16.83;;;8.60;;